Observation data for Turkey on 02/14/2020      Previous  Date  Next       Current Mesonet Observations  Soil Data  Daily Summary Page  Observations in Plain Language
KTUR 140600Z 07006KT M05/M09 A3034 RMK A01 T10481091  RH  073%=      5-min Rain = 0
KTUR 140605Z 08006KT M05/M09 A3034 RMK A01 T10491092  RH  073%=      5-min Rain = 0
KTUR 140610Z 08006KT M05/M09 A3034 RMK A01 T10501092  RH  074%=      5-min Rain = 0
KTUR 140615Z 08006KT M05/M09 A3034 RMK A01 T10501093  RH  073%=      5-min Rain = 0
KTUR 140620Z 08006KT M05/M09 A3034 RMK A01 T10511092  RH  074%=      5-min Rain = 0
KTUR 140625Z 08006KT M05/M09 A3034 RMK A01 T10521094  RH  073%=      5-min Rain = 0
KTUR 140630Z 08006KT M05/M10 A3034 RMK A01 T10521095  RH  073%=      5-min Rain = 0
KTUR 140635Z 08006KT M05/M10 A3034 RMK A01 T10531095  RH  073%=      5-min Rain = 0
KTUR 140640Z 08006KT M05/M10 A3034 RMK A01 T10531096  RH  072%=      5-min Rain = 0
KTUR 140645Z 08006KT M05/M10 A3034 RMK A01 T10541096  RH  073%=      5-min Rain = 0
KTUR 140650Z 08005KT M06/M10 A3034 RMK A01 T10551096  RH  074%=      5-min Rain = 0
KTUR 140655Z 08004KT M06/M10 A3035 RMK A01 T10571095  RH  075%=      5-min Rain = 0
KTUR 140700Z 08004KT M06/M10 A3035 RMK A01 T10581095  RH  076%=      5-min Rain = 0
KTUR 140705Z 09004KT M06/M10 A3034 RMK A01 T10591095  RH  077%=      5-min Rain = 0
KTUR 140710Z 09005KT M06/M09 A3035 RMK A01 T10581094  RH  076%=      5-min Rain = 0
KTUR 140715Z 08006KT M06/M10 A3035 RMK A01 T10561098  RH  073%=      5-min Rain = 0
KTUR 140720Z 08006KT M06/M10 A3035 RMK A01 T10571098  RH  074%=      5-min Rain = 0
KTUR 140725Z 08006KT M06/M10 A3035 RMK A01 T10571100  RH  073%=      5-min Rain = 0
KTUR 140730Z 08006KT M06/M10 A3035 RMK A01 T10581099  RH  073%=      5-min Rain = 0
KTUR 140735Z 08005KT M06/M10 A3035 RMK A01 T10581099  RH  074%=      5-min Rain = 0
KTUR 140740Z 08005KT M06/M10 A3035 RMK A01 T10601099  RH  075%=      5-min Rain = 0
KTUR 140745Z 08005KT M06/M10 A3035 RMK A01 T10601100  RH  074%=      5-min Rain = 0
KTUR 140750Z 08004KT M06/M10 A3035 RMK A01 T10601100  RH  074%=      5-min Rain = 0
KTUR 140755Z 08004KT M06/M10 A3035 RMK A01 T10621099  RH  076%=      5-min Rain = 0
KTUR 140800Z 08004KT M06/M10 A3035 RMK A01 T10631099  RH  077%=      5-min Rain = 0
KTUR 140805Z 08004KT M06/M10 A3035 RMK A01 T10641099  RH  077%=      5-min Rain = 0
KTUR 140810Z 08004KT M06/M10 A3036 RMK A01 T10641100  RH  077%=      5-min Rain = 0
KTUR 140815Z 07004KT M06/M10 A3036 RMK A01 T10641100  RH  076%=      5-min Rain = 0
KTUR 140820Z 06003KT M06/M10 A3036 RMK A01 T10641100  RH  077%=      5-min Rain = 0
KTUR 140825Z 06004KT M06/M10 A3036 RMK A01 T10641100  RH  077%=      5-min Rain = 0
KTUR 140830Z 07004KT M07/M10 A3036 RMK A01 T10651100  RH  077%=      5-min Rain = 0
KTUR 140835Z 06003KT M07/M10 A3036 RMK A01 T10651099  RH  078%=      5-min Rain = 0
KTUR 140840Z 03002KT M07/M10 A3036 RMK A01 T10651099  RH  078%=      5-min Rain = 0
KTUR 140845Z 03002KT M07/M10 A3036 RMK A01 T10651098  RH  078%=      5-min Rain = 0
KTUR 140850Z 02002KT M06/M10 A3036 RMK A01 T10641097  RH  079%=      5-min Rain = 0
KTUR 140855Z 34002KT M07/M10 A3036 RMK A01 T10651096  RH  080%=      5-min Rain = 0
KTUR 140900Z 35002KT M07/M10 A3036 RMK A01 T10661096  RH  080%=      5-min Rain = 0
KTUR 140905Z 36002KT M07/M10 A3036 RMK A01 T10671096  RH  081%=      5-min Rain = 0
KTUR 140910Z 01002KT M07/M10 A3036 RMK A01 T10671097  RH  080%=      5-min Rain = 0
KTUR 140915Z 02002KT M07/M10 A3036 RMK A01 T10671097  RH  080%=      5-min Rain = 0
KTUR 140920Z 03003KT M07/M10 A3036 RMK A01 T10681097  RH  081%=      5-min Rain = 0
KTUR 140925Z 03003KT M07/M10 A3036 RMK A01 T10681101  RH  079%=      5-min Rain = 0
KTUR 140930Z 03004KT M07/M10 A3036 RMK A01 T10681102  RH  078%=      5-min Rain = 0
KTUR 140935Z 03004KT M07/M10 A3036 RMK A01 T10691103  RH  077%=      5-min Rain = 0
KTUR 140940Z 03003KT M07/M10 A3036 RMK A01 T10691102  RH  078%=      5-min Rain = 0
KTUR 140945Z 03004KT M07/M10 A3036 RMK A01 T10681101  RH  078%=      5-min Rain = 0
KTUR 140950Z 04004KT M07/M10 A3036 RMK A01 T10691102  RH  078%=      5-min Rain = 0
KTUR 140955Z 04004KT M07/M10 A3036 RMK A01 T10681103  RH  077%=      5-min Rain = 0
KTUR 141000Z 03003KT M07/M10 A3036 RMK A01 T10671101  RH  078%=      5-min Rain = 0
KTUR 141005Z 02004KT M07/M10 A3036 RMK A01 T10671099  RH  079%=      5-min Rain = 0
KTUR 141010Z 01004KT M07/M10 A3036 RMK A01 T10681097  RH  081%=      5-min Rain = 0
KTUR 141015Z 02004KT M07/M10 A3036 RMK A01 T10671097  RH  081%=      5-min Rain = 0
KTUR 141020Z 03004KT M07/M10 A3036 RMK A01 T10671097  RH  081%=      5-min Rain = 0
KTUR 141025Z 02003KT M07/M10 A3036 RMK A01 T10671096  RH  081%=      5-min Rain = 0
KTUR 141030Z 03004KT M07/M10 A3036 RMK A01 T10691097  RH  081%=      5-min Rain = 0
KTUR 141035Z 04004KT M07/M10 A3036 RMK A01 T10701098  RH  081%=      5-min Rain = 0
KTUR 141040Z 04004KT M07/M10 A3036 RMK A01 T10711100  RH  081%=      5-min Rain = 0
KTUR 141045Z 04004KT M07/M10 A3035 RMK A01 T10711099  RH  081%=      5-min Rain = 0
KTUR 141050Z 04004KT M07/M10 A3035 RMK A01 T10721099  RH  082%=      5-min Rain = 0
KTUR 141055Z 05004KT M07/M10 A3035 RMK A01 T10731099  RH  083%=      5-min Rain = 0
KTUR 141100Z 06005KT M07/M10 A3035 RMK A01 T10741101  RH  082%=      5-min Rain = 0
KTUR 141105Z 06005KT M07/M10 A3035 RMK A01 T10741102  RH  082%=      5-min Rain = 0
KTUR 141110Z 06005KT M07/M10 A3036 RMK A01 T10741101  RH  082%=      5-min Rain = 0
KTUR 141115Z 07004KT M07/M10 A3036 RMK A01 T10731101  RH  082%=      5-min Rain = 0
KTUR 141120Z 07004KT M07/M10 A3035 RMK A01 T10731101  RH  082%=      5-min Rain = 0
KTUR 141125Z 08004KT M07/M10 A3035 RMK A01 T10731102  RH  081%=      5-min Rain = 0
KTUR 141130Z 07003KT M07/M10 A3036 RMK A01 T10731103  RH  080%=      5-min Rain = 0
KTUR 141135Z 07004KT M07/M10 A3036 RMK A01 T10741103  RH  080%=      5-min Rain = 0
KTUR 141140Z 07004KT M07/M10 A3036 RMK A01 T10741103  RH  081%=      5-min Rain = 0
KTUR 141145Z 08004KT M08/M10 A3035 RMK A01 T10751103  RH  082%=      5-min Rain = 0
KTUR 141150Z 09004KT M07/M10 A3035 RMK A01 T10741102  RH  082%=      5-min Rain = 0
KTUR 141155Z 09004KT M07/M10 A3036 RMK A01 T10741102  RH  081%=      5-min Rain = 0
KTUR 141200Z 09004KT M07/M10 A3036 RMK A01 T10741103  RH  081%=      5-min Rain = 0
KTUR 141205Z 08004KT M07/M10 A3036 RMK A01 T10741103  RH  081%=      5-min Rain = 0
KTUR 141210Z 08004KT M07/M10 A3035 RMK A01 T10741102  RH  081%=      5-min Rain = 0
KTUR 141215Z 08004KT M07/M10 A3035 RMK A01 T10711100  RH  081%=      5-min Rain = 0
KTUR 141220Z 08004KT M07/M10 A3035 RMK A01 T10691101  RH  079%=      5-min Rain = 0
KTUR 141225Z 08003KT M07/M10 A3035 RMK A01 T10681101  RH  078%=      5-min Rain = 0
KTUR 141230Z 08004KT M07/M10 A3035 RMK A01 T10681102  RH  078%=      5-min Rain = 0
KTUR 141235Z 08003KT M07/M10 A3035 RMK A01 T10691103  RH  077%=      5-min Rain = 0
KTUR 141240Z 08003KT M07/M10 A3036 RMK A01 T10711102  RH  079%=      5-min Rain = 0
KTUR 141245Z 07002KT M07/M10 A3036 RMK A01 T10721102  RH  080%=      5-min Rain = 0
KTUR 141250Z 07003KT M07/M10 A3036 RMK A01 T10731102  RH  081%=      5-min Rain = 0
KTUR 141255Z 07002KT M07/M10 A3036 RMK A01 T10731100  RH  082%=      5-min Rain = 0
KTUR 141300Z 08002KT M07/M10 A3036 RMK A01 T10721098  RH  083%=      5-min Rain = 0
KTUR 141305Z 08003KT M07/M10 A3035 RMK A01 T10711099  RH  081%=      5-min Rain = 0
KTUR 141310Z 08003KT M07/M10 A3036 RMK A01 T10691101  RH  079%=      5-min Rain = 0
KTUR 141315Z 07003KT M07/M10 A3036 RMK A01 T10681100  RH  079%=      5-min Rain = 0
KTUR 141320Z 07003KT M07/M10 A3036 RMK A01 T10681101  RH  078%=      5-min Rain = 0
KTUR 141325Z 08003KT M07/M10 A3036 RMK A01 T10681102  RH  078%=      5-min Rain = 0
KTUR 141330Z 09003KT M07/M10 A3036 RMK A01 T10681103  RH  077%=      5-min Rain = 0
KTUR 141335Z 08002KT M07/M10 A3036 RMK A01 T10671101  RH  078%=      5-min Rain = 0
KTUR 141340Z 08003KT M07/M10 A3036 RMK A01 T10661100  RH  078%=      5-min Rain = 0
KTUR 141345Z 10003KT M07/M10 A3037 RMK A01 T10661101  RH  077%=      5-min Rain = 0
KTUR 141350Z 10004KT M07/M10 A3037 RMK A01 T10661103  RH  076%=      5-min Rain = 0
KTUR 141355Z 11003KT M07/M11 A3037 RMK A01 T10651105  RH  075%=      5-min Rain = 0
KTUR 141400Z 10003KT M07/M10 A3037 RMK A01 T10651101  RH  076%=      5-min Rain = 0
KTUR 141405Z 11003KT M06/M10 A3037 RMK A01 T10641102  RH  076%=      5-min Rain = 0
KTUR 141410Z 11004KT M06/M10 A3037 RMK A01 T10641103  RH  075%=      5-min Rain = 0
KTUR 141415Z 12004KT M06/M10 A3037 RMK A01 T10641102  RH  075%=      5-min Rain = 0
KTUR 141420Z 13003KT M06/M10 A3038 RMK A01 T10631101  RH  076%=      5-min Rain = 0
KTUR 141425Z 11004KT M06/M10 A3038 RMK A01 T10631101  RH  076%=      5-min Rain = 0
KTUR 141430Z 11005KT M06/M10 A3038 RMK A01 T10621101  RH  075%=      5-min Rain = 0
KTUR 141435Z 11005KT M06/M10 A3038 RMK A01 T10621102  RH  075%=      5-min Rain = 0
KTUR 141440Z 12005KT M06/M10 A3038 RMK A01 T10621101  RH  075%=      5-min Rain = 0
KTUR 141445Z 13006KT M06/M10 A3038 RMK A01 T10611101  RH  075%=      5-min Rain = 0
KTUR 141450Z 12006KT M06/M10 A3038 RMK A01 T10611101  RH  074%=      5-min Rain = 0
KTUR 141455Z 12005KT M06/M10 A3038 RMK A01 T10611100  RH  075%=      5-min Rain = 0
KTUR 141500Z 12005KT M06/M10 A3038 RMK A01 T10591097  RH  076%=      5-min Rain = 0
KTUR 141505Z 12005KT M06/M10 A3038 RMK A01 T10591097  RH  075%=      5-min Rain = 0
KTUR 141510Z 13006KT M06/M10 A3038 RMK A01 T10591097  RH  075%=      5-min Rain = 0
KTUR 141515Z 11005KT M06/M10 A3038 RMK A01 T10591098  RH  075%=      5-min Rain = 0
KTUR 141520Z 12005KT M06/M10 A3038 RMK A01 T10571096  RH  075%=      5-min Rain = 0
KTUR 141525Z 12006KT M06/M10 A3038 RMK A01 T10561095  RH  075%=      5-min Rain = 0
KTUR 141530Z 12005KT M06/M10 A3038 RMK A01 T10561096  RH  075%=      5-min Rain = 0
KTUR 141535Z 12006KT M05/M09 A3038 RMK A01 T10541093  RH  075%=      5-min Rain = 0
KTUR 141540Z 14005KT M05/M09 A3038 RMK A01 T10541094  RH  074%=      5-min Rain = 0
KTUR 141545Z 13005KT M05/M09 A3038 RMK A01 T10531093  RH  074%=      5-min Rain = 0
KTUR 141550Z 15006KT M05/M09 A3038 RMK A01 T10521093  RH  074%=      5-min Rain = 0
KTUR 141555Z 13005KT M05/M09 A3038 RMK A01 T10531094  RH  074%=      5-min Rain = 0
KTUR 141600Z 12005KT M05/M09 A3038 RMK A01 T10511091  RH  074%=      5-min Rain = 0
KTUR 141605Z 14006KT M05/M09 A3038 RMK A01 T10501092  RH  073%=      5-min Rain = 0
KTUR 141610Z 14005KT M05/M09 A3038 RMK A01 T10501093  RH  073%=      5-min Rain = 0
KTUR 141615Z 14006KT M05/M09 A3038 RMK A01 T10491092  RH  073%=      5-min Rain = 0
KTUR 141620Z 14006KT M05/M09 A3037 RMK A01 T10471090  RH  073%=      5-min Rain = 0
KTUR 141625Z 16007KT M05/M09 A3037 RMK A01 T10471090  RH  073%=      5-min Rain = 0
KTUR 141630Z 15006KT M05/M09 A3037 RMK A01 T10451088  RH  073%=      5-min Rain = 0
KTUR 141635Z 14006KT M05/M09 A3037 RMK A01 T10451088  RH  073%=      5-min Rain = 0
KTUR 141640Z 13006KT M04/M09 A3037 RMK A01 T10441088  RH  072%=      5-min Rain = 0
KTUR 141645Z 14005KT M04/M09 A3037 RMK A01 T10441087  RH  073%=      5-min Rain = 0
KTUR 141650Z 14006KT M04/M08 A3037 RMK A01 T10401084  RH  073%=      5-min Rain = 0
KTUR 141655Z 14007KT M04/M08 A3036 RMK A01 T10381081  RH  073%=      5-min Rain = 0
KTUR 141700Z 14008KT M04/M08 A3036 RMK A01 T10371081  RH  073%=      5-min Rain = 0
KTUR 141705Z 15007KT M04/M08 A3036 RMK A01 T10371080  RH  073%=      5-min Rain = 0
KTUR 141710Z 14007KT M04/M08 A3036 RMK A01 T10361079  RH  073%=      5-min Rain = 0
KTUR 141715Z 14009KT M04/M08 A3036 RMK A01 T10351078  RH  073%=      5-min Rain = 0
KTUR 141720Z 14008G13KT M03/M08 A3035 RMK A01 T10331076  RH  073%=      5-min Rain = 0
KTUR 141725Z 13008KT M03/M07 A3035 RMK A01 T10301074  RH  073%=      5-min Rain = 0
KTUR 141730Z 13008KT M03/M07 A3035 RMK A01 T10281072  RH  072%=      5-min Rain = 0
KTUR 141735Z 14009KT M03/M07 A3034 RMK A01 T10261070  RH  072%=      5-min Rain = 0
KTUR 141740Z 15009KT M02/M07 A3034 RMK A01 T10241070  RH  072%=      5-min Rain = 0
KTUR 141745Z 14010KT M02/M07 A3034 RMK A01 T10221067  RH  072%=      5-min Rain = 0
KTUR 141750Z 14010KT M02/M07 A3033 RMK A01 T10211067  RH  072%=      5-min Rain = 0
KTUR 141755Z 15009KT M02/M07 A3033 RMK A01 T10201065  RH  072%=      5-min Rain = 0
KTUR 141800Z 14010G15KT M02/M07 A3033 RMK A01 T10201065  RH  072%=      5-min Rain = 0
KTUR 141805Z 14009KT M02/M06 A3032 RMK A01 T10191064  RH  072%=      5-min Rain = 0
KTUR 141810Z 14009KT M02/M06 A3032 RMK A01 T10151062  RH  071%=      5-min Rain = 0
KTUR 141815Z 13009KT M02/M06 A3032 RMK A01 T10151062  RH  071%=      5-min Rain = 0
KTUR 141820Z 15008KT M01/M06 A3031 RMK A01 T10121059  RH  071%=      5-min Rain = 0
KTUR 141825Z 16010KT M01/M06 A3031 RMK A01 T10091058  RH  070%=      5-min Rain = 0
KTUR 141830Z 16009KT M01/M06 A3031 RMK A01 T10091057  RH  070%=      5-min Rain = 0
KTUR 141835Z 14010KT M01/M05 A303 RMK A01 T10051054  RH  070%=      5-min Rain = 0
KTUR 141840Z 15010KT M00/M05 A303 RMK A01 T10021053  RH  069%=      5-min Rain = 0
KTUR 141845Z 13010KT 00/M05 A303 RMK A01 T00011050  RH  069%=      5-min Rain = 0
KTUR 141850Z 14010KT 00/M05 A3029 RMK A01 T00041048  RH  069%=      5-min Rain = 0
KTUR 141855Z 15011G16KT 01/M05 A3029 RMK A01 T00071045  RH  069%=      5-min Rain = 0
KTUR 141900Z 15011KT 01/M04 A3028 RMK A01 T00091042  RH  069%=      5-min Rain = 0
KTUR 141905Z 15010KT 01/M04 A3028 RMK A01 T00101041  RH  069%=      5-min Rain = 0
KTUR 141910Z 16011KT 01/M04 A3027 RMK A01 T00131037  RH  070%=      5-min Rain = 0
KTUR 141915Z 15012G17KT 02/M04 A3027 RMK A01 T00151037  RH  069%=      5-min Rain = 0
KTUR 141920Z 15012KT 02/M03 A3026 RMK A01 T00171034  RH  070%=      5-min Rain = 0
KTUR 141925Z 15011G16KT 02/M03 A3026 RMK A01 T00171034  RH  070%=      5-min Rain = 0
KTUR 141930Z 15013KT 02/M03 A3026 RMK A01 T00191033  RH  069%=      5-min Rain = 0
KTUR 141935Z 16011KT 02/M03 A3026 RMK A01 T00201032  RH  069%=      5-min Rain = 0
KTUR 141940Z 17013KT 02/M03 A3026 RMK A01 T00231028  RH  070%=      5-min Rain = 0
KTUR 141945Z 17014KT 02/M03 A3025 RMK A01 T00221027  RH  071%=      5-min Rain = 0
KTUR 141950Z 18012KT 02/M03 A3025 RMK A01 T00241026  RH  070%=      5-min Rain = 0
KTUR 141955Z 16011KT 03/M03 A3025 RMK A01 T00271025  RH  069%=      5-min Rain = 0
KTUR 142000Z 16011G16KT 03/M02 A3025 RMK A01 T00271023  RH  070%=      5-min Rain = 0
KTUR 142005Z 17015KT 03/M02 A3024 RMK A01 T00311021  RH  069%=      5-min Rain = 0
KTUR 142010Z 18016KT 03/M02 A3024 RMK A01 T00301022  RH  069%=      5-min Rain = 0
KTUR 142015Z 17015KT 03/M02 A3024 RMK A01 T00301022  RH  070%=      5-min Rain = 0
KTUR 142020Z 18015G20KT 03/M02 A3024 RMK A01 T00331020  RH  069%=      5-min Rain = 0
KTUR 142025Z 18015KT 03/M02 A3023 RMK A01 T00321021  RH  069%=      5-min Rain = 0
KTUR 142030Z 17014KT 03/M02 A3023 RMK A01 T00321021  RH  069%=      5-min Rain = 0
KTUR 142035Z 17014G19KT 03/M02 A3023 RMK A01 T00301022  RH  069%=      5-min Rain = 0
KTUR 142040Z 17012G17KT 03/M02 A3022 RMK A01 T00301022  RH  069%=      5-min Rain = 0
KTUR 142045Z 17014KT 03/M02 A3022 RMK A01 T00301022  RH  069%=      5-min Rain = 0
KTUR 142050Z 16013KT 03/M02 A3022 RMK A01 T00311022  RH  069%=      5-min Rain = 0
KTUR 142055Z 17012G17KT 03/M02 A3022 RMK A01 T00341019  RH  069%=      5-min Rain = 0
KTUR 142100Z 18013KT 04/M02 A3022 RMK A01 T00351021  RH  068%=      5-min Rain = 0
KTUR 142105Z 16013G18KT 03/M02 A3021 RMK A01 T00341021  RH  068%=      5-min Rain = 0
KTUR 142110Z 17013G18KT 04/M02 A3021 RMK A01 T00361019  RH  068%=      5-min Rain = 0
KTUR 142115Z 16012KT 04/M02 A3021 RMK A01 T00401018  RH  067%=      5-min Rain = 0
KTUR 142120Z 17012KT 04/M02 A3021 RMK A01 T00371020  RH  067%=      5-min Rain = 0
KTUR 142125Z 15012KT 04/M02 A302 RMK A01 T00411018  RH  066%=      5-min Rain = 0
KTUR 142130Z 14011G16KT 04/M02 A302 RMK A01 T00391018  RH  067%=      5-min Rain = 0
KTUR 142135Z 17012KT 04/M02 A3019 RMK A01 T00441016  RH  066%=      5-min Rain = 0
KTUR 142140Z 17012G17KT 05/M02 A3019 RMK A01 T00481015  RH  065%=      5-min Rain = 0
KTUR 142145Z 18014KT 05/M02 A3019 RMK A01 T00471017  RH  064%=      5-min Rain = 0
KTUR 142150Z 17013KT 04/M02 A3019 RMK A01 T00441017  RH  065%=      5-min Rain = 0
KTUR 142155Z 18014G19KT 05/M02 A3018 RMK A01 T00471015  RH  065%=      5-min Rain = 0
KTUR 142200Z 19016KT 05/M02 A3018 RMK A01 T00451017  RH  065%=      5-min Rain = 0
KTUR 142205Z 18016G21KT 05/M02 A3018 RMK A01 T00451016  RH  065%=      5-min Rain = 0
KTUR 142210Z 17016KT 04/M02 A3018 RMK A01 T00421017  RH  066%=      5-min Rain = 0
KTUR 142215Z 17016KT 04/M02 A3018 RMK A01 T00431016  RH  066%=      5-min Rain = 0
KTUR 142220Z 18016G21KT 05/M02 A3017 RMK A01 T00451015  RH  066%=      5-min Rain = 0
KTUR 142225Z 17017KT 04/M02 A3017 RMK A01 T00421017  RH  066%=      5-min Rain = 0
KTUR 142230Z 18016G21KT 04/M02 A3017 RMK A01 T00421016  RH  067%=      5-min Rain = 0
KTUR 142235Z 18016KT 04/M02 A3017 RMK A01 T00421016  RH  067%=      5-min Rain = 0
KTUR 142240Z 18015KT 04/M02 A3017 RMK A01 T00431015  RH  066%=      5-min Rain = 0
KTUR 142245Z 18016KT 04/M02 A3017 RMK A01 T00431015  RH  067%=      5-min Rain = 0
KTUR 142250Z 17017KT 04/M02 A3017 RMK A01 T00401016  RH  067%=      5-min Rain = 0
KTUR 142255Z 18016KT 04/M02 A3017 RMK A01 T00401016  RH  068%=      5-min Rain = 0
KTUR 142300Z 17016KT 04/M02 A3017 RMK A01 T00401016  RH  068%=      5-min Rain = 0
KTUR 142305Z 17016KT 04/M02 A3017 RMK A01 T00411015  RH  068%=      5-min Rain = 0
KTUR 142310Z 16016KT 04/M02 A3017 RMK A01 T00401016  RH  068%=      5-min Rain = 0
KTUR 142315Z 16015KT 04/M02 A3017 RMK A01 T00371016  RH  069%=      5-min Rain = 0
KTUR 142320Z 17016KT 04/M02 A3017 RMK A01 T00361016  RH  070%=      5-min Rain = 0
KTUR 142325Z 17014G19KT 04/M01 A3017 RMK A01 T00381014  RH  070%=      5-min Rain = 0
KTUR 142330Z 17016KT 04/M02 A3017 RMK A01 T00371015  RH  070%=      5-min Rain = 0
KTUR 142335Z 17016KT 03/M02 A3017 RMK A01 T00341016  RH  070%=      5-min Rain = 0
KTUR 142340Z 17013KT 04/M02 A3016 RMK A01 T00351015  RH  071%=      5-min Rain = 0
KTUR 142345Z 17014KT 04/M02 A3016 RMK A01 T00361015  RH  070%=      5-min Rain = 0
KTUR 142350Z 17014KT 04/M01 A3016 RMK A01 T00361014  RH  071%=      5-min Rain = 0
KTUR 142355Z 17014KT 04/M01 A3016 RMK A01 T00351014  RH  071%=      5-min Rain = 0
KTUR 150000Z 18014KT 04/M01 A3016 RMK A01 T00351014  RH  071%=      5-min Rain = 0
KTUR 150005Z 18013KT 03/M01 A3016 RMK A01 T00331014  RH  072%=      5-min Rain = 0
KTUR 150010Z 18013KT 03/M01 A3016 RMK A01 T00311014  RH  073%=      5-min Rain = 0
KTUR 150015Z 18012KT 03/M01 A3016 RMK A01 T00291014  RH  074%=      5-min Rain = 0
KTUR 150020Z 17012KT 03/M01 A3016 RMK A01 T00281014  RH  074%=      5-min Rain = 0
KTUR 150025Z 17012KT 03/M02 A3016 RMK A01 T00271015  RH  075%=      5-min Rain = 0
KTUR 150030Z 17012KT 03/M02 A3016 RMK A01 T00261015  RH  075%=      5-min Rain = 0
KTUR 150035Z 18011KT 02/M02 A3016 RMK A01 T00241015  RH  076%=      5-min Rain = 0
KTUR 150040Z 18009KT 02/M02 A3016 RMK A01 T00211016  RH  077%=      5-min Rain = 0
KTUR 150045Z 18009KT 02/M02 A3016 RMK A01 T00181017  RH  078%=      5-min Rain = 0
KTUR 150050Z 18009KT 02/M02 A3016 RMK A01 T00171017  RH  079%=      5-min Rain = 0
KTUR 150055Z 18009KT 02/M02 A3016 RMK A01 T00151018  RH  080%=      5-min Rain = 0
KTUR 150100Z 18009KT 01/M02 A3016 RMK A01 T00131018  RH  081%=      5-min Rain = 0
KTUR 150105Z 18009KT 01/M02 A3016 RMK A01 T00121018  RH  081%=      5-min Rain = 0
KTUR 150110Z 18010KT 01/M02 A3016 RMK A01 T00131017  RH  081%=      5-min Rain = 0
KTUR 150115Z 18011KT 01/M02 A3016 RMK A01 T00131016  RH  081%=      5-min Rain = 0
KTUR 150120Z 18010KT 01/M02 A3016 RMK A01 T00131016  RH  082%=      5-min Rain = 0
KTUR 150125Z 18010KT 01/M02 A3016 RMK A01 T00111017  RH  083%=      5-min Rain = 0
KTUR 150130Z 18009KT 01/M02 A3016 RMK A01 T00081018  RH  084%=      5-min Rain = 0
KTUR 150135Z 18009KT 01/M02 A3016 RMK A01 T00061019  RH  084%=      5-min Rain = 0
KTUR 150140Z 18009KT 00/M02 A3016 RMK A01 T00041020  RH  085%=      5-min Rain = 0
KTUR 150145Z 18009KT 00/M02 A3016 RMK A01 T00031020  RH  086%=      5-min Rain = 0
KTUR 150150Z 19009KT 00/02 A3016 RMK A01 T00000-22  RH  086%=      5-min Rain = 0
KTUR 150155Z 19009KT M00/M02 A3015 RMK A01 T10031023  RH  087%=      5-min Rain = 0
KTUR 150200Z 19010KT M00/M02 A3015 RMK A01 T10011021  RH  088%=      5-min Rain = 0
KTUR 150205Z 20011KT M00/M02 A3015 RMK A01 T10011020  RH  088%=      5-min Rain = 0
KTUR 150210Z 20011KT 00/02 A3015 RMK A01 T00000-19  RH  088%=      5-min Rain = 0
KTUR 150215Z 20011KT 00/M02 A3015 RMK A01 T00031017  RH  087%=      5-min Rain = 0
KTUR 150220Z 20010KT 00/M02 A3015 RMK A01 T00041016  RH  087%=      5-min Rain = 0
KTUR 150225Z 19010KT 00/M02 A3015 RMK A01 T00011018  RH  088%=      5-min Rain = 0
KTUR 150230Z 19010KT M00/M02 A3015 RMK A01 T10011018  RH  089%=      5-min Rain = 0
KTUR 150235Z 18010KT 00/02 A3015 RMK A01 T00-00-18  RH  089%=      5-min Rain = 0
KTUR 150240Z 19010KT 00/M02 A3015 RMK A01 T00011017  RH  089%=      5-min Rain = 0
KTUR 150245Z 19011KT 00/M02 A3015 RMK A01 T00011016  RH  089%=      5-min Rain = 0
KTUR 150250Z 19011KT 00/M02 A3015 RMK A01 T00021016  RH  089%=      5-min Rain = 0
KTUR 150255Z 19011KT 00/M02 A3014 RMK A01 T00021015  RH  089%=      5-min Rain = 0
KTUR 150300Z 20011KT 00/M02 A3014 RMK A01 T00011016  RH  090%=      5-min Rain = 0
KTUR 150305Z 20010KT 00/02 A3014 RMK A01 T00000-16  RH  090%=      5-min Rain = 0
KTUR 150310Z 19010KT M00/M02 A3014 RMK A01 T10011017  RH  090%=      5-min Rain = 0
KTUR 150315Z 19010KT M00/M02 A3014 RMK A01 T10021017  RH  090%=      5-min Rain = 0
KTUR 150320Z 19011KT 00/02 A3014 RMK A01 T00000-15  RH  090%=      5-min Rain = 0
KTUR 150325Z 19011KT 00/M02 A3014 RMK A01 T00021015  RH  090%=      5-min Rain = 0
KTUR 150330Z 20009KT 00/02 A3014 RMK A01 T00-00-16  RH  090%=      5-min Rain = 0
KTUR 150335Z 20008KT 00/02 A3014 RMK A01 T00-00-16  RH  090%=      5-min Rain = 0
KTUR 150340Z 21008KT M00/M02 A3014 RMK A01 T10031018  RH  090%=      5-min Rain = 0
KTUR 150345Z 21008KT M01/M02 A3013 RMK A01 T10051019  RH  091%=      5-min Rain = 0
KTUR 150350Z 21008KT M01/M02 A3013 RMK A01 T10061019  RH  092%=      5-min Rain = 0
KTUR 150355Z 22007KT M01/M02 A3013 RMK A01 T10051018  RH  092%=      5-min Rain = 0
KTUR 150400Z 23007KT M01/M02 A3013 RMK A01 T10051018  RH  092%=      5-min Rain = 0
KTUR 150405Z 23008KT M00/M02 A3013 RMK A01 T10041016  RH  092%=      5-min Rain = 0
KTUR 150410Z 22008KT 00/M01 A3013 RMK A01 T00021012  RH  092%=      5-min Rain = 0
KTUR 150415Z 22008KT 01/M01 A3013 RMK A01 T00051011  RH  090%=      5-min Rain = 0
KTUR 150420Z 23007KT 01/M01 A3013 RMK A01 T00051012  RH  090%=      5-min Rain = 0
KTUR 150425Z 24007KT 00/M01 A3013 RMK A01 T00021014  RH  090%=      5-min Rain = 0
KTUR 150430Z 24006KT 00/02 A3012 RMK A01 T00000-15  RH  090%=      5-min Rain = 0
KTUR 150435Z 24006KT 00/M01 A3013 RMK A01 T00011014  RH  091%=      5-min Rain = 0
KTUR 150440Z 23006KT 00/M01 A3012 RMK A01 T00031011  RH  091%=      5-min Rain = 0
KTUR 150445Z 24004KT 00/M01 A3012 RMK A01 T00031014  RH  090%=      5-min Rain = 0
KTUR 150450Z 25004KT 01/M01 A3012 RMK A01 T00051011  RH  090%=      5-min Rain = 0
KTUR 150455Z 25003KT 01/M01 A3012 RMK A01 T00061011  RH  090%=      5-min Rain = 0
KTUR 150500Z 25003KT 01/M01 A3012 RMK A01 T00081010  RH  089%=      5-min Rain = 0
KTUR 150505Z 26004KT 01/M01 A3012 RMK A01 T00091009  RH  089%=      5-min Rain = 0
KTUR 150510Z 26004KT 01/M01 A3012 RMK A01 T00091010  RH  088%=      5-min Rain = 0
KTUR 150515Z 26004KT 01/M01 A3011 RMK A01 T00091010  RH  088%=      5-min Rain = 0
KTUR 150520Z 26004KT 01/M01 A3011 RMK A01 T00121008  RH  088%=      5-min Rain = 0
KTUR 150525Z 27004KT 01/M01 A3011 RMK A01 T00121008  RH  087%=      5-min Rain = 0
KTUR 150530Z 28004KT 01/M01 A3011 RMK A01 T00121008  RH  087%=      5-min Rain = 0
KTUR 150535Z 29005KT 01/M01 A3011 RMK A01 T00071013  RH  088%=      5-min Rain = 0
KTUR 150540Z 28004KT 01/M01 A3011 RMK A01 T00071011  RH  089%=      5-min Rain = 0
KTUR 150545Z 28003KT 01/M01 A3011 RMK A01 T00111007  RH  089%=      5-min Rain = 0
KTUR 150550Z 27002KT 01/M01 A3011 RMK A01 T00141006  RH  088%=      5-min Rain = 0
KTUR 150555Z 25002KT 02/M00 A301 RMK A01 T00201002  RH  087%=      5-min Rain = 0

Page generated in 0.0389 seconds.